sensor_id;sensor_type;location;lat;lon;timestamp;P1;durP1;ratioP1;P2;durP2;ratioP2
67160;SDS011;54088;52.238;21.104;2022-08-21T00:00:24;8.60;;;5.38;;
67160;SDS011;54088;52.238;21.104;2022-08-21T00:02:56;10.30;;;5.22;;
67160;SDS011;54088;52.238;21.104;2022-08-21T00:05:26;8.43;;;4.65;;
67160;SDS011;54088;52.238;21.104;2022-08-21T00:07:52;7.78;;;4.90;;
67160;SDS011;54088;52.238;21.104;2022-08-21T00:10:18;10.93;;;5.40;;
67160;SDS011;54088;52.238;21.104;2022-08-21T00:12:45;8.98;;;5.45;;
67160;SDS011;54088;52.238;21.104;2022-08-21T00:15:12;8.00;;;5.20;;
67160;SDS011;54088;52.238;21.104;2022-08-21T00:17:42;9.13;;;5.03;;
67160;SDS011;54088;52.238;21.104;2022-08-21T00:20:09;8.30;;;4.90;;
67160;SDS011;54088;52.238;21.104;2022-08-21T00:22:36;8.90;;;5.70;;
67160;SDS011;54088;52.238;21.104;2022-08-21T00:25:03;9.60;;;5.38;;
67160;SDS011;54088;52.238;21.104;2022-08-21T00:27:31;9.43;;;4.78;;
67160;SDS011;54088;52.238;21.104;2022-08-21T00:29:57;8.88;;;5.07;;
67160;SDS011;54088;52.238;21.104;2022-08-21T00:32:24;9.23;;;5.32;;
67160;SDS011;54088;52.238;21.104;2022-08-21T00:34:51;8.13;;;4.95;;
67160;SDS011;54088;52.238;21.104;2022-08-21T00:37:17;7.78;;;5.00;;
67160;SDS011;54088;52.238;21.104;2022-08-21T00:39:43;7.68;;;5.10;;
67160;SDS011;54088;52.238;21.104;2022-08-21T00:42:10;8.48;;;5.30;;
67160;SDS011;54088;52.238;21.104;2022-08-21T00:44:39;7.78;;;5.13;;
67160;SDS011;54088;52.238;21.104;2022-08-21T00:47:09;8.32;;;5.43;;
67160;SDS011;54088;52.238;21.104;2022-08-21T00:49:35;7.68;;;4.80;;
67160;SDS011;54088;52.238;21.104;2022-08-21T00:52:01;7.65;;;4.90;;
67160;SDS011;54088;52.238;21.104;2022-08-21T00:54:28;8.18;;;5.60;;
67160;SDS011;54088;52.238;21.104;2022-08-21T00:56:57;9.05;;;5.30;;
67160;SDS011;54088;52.238;21.104;2022-08-21T00:59:26;7.40;;;5.15;;
67160;SDS011;54088;52.238;21.104;2022-08-21T01:01:54;7.63;;;5.20;;
67160;SDS011;54088;52.238;21.104;2022-08-21T01:04:20;10.48;;;5.70;;
67160;SDS011;54088;52.238;21.104;2022-08-21T01:06:47;7.45;;;5.70;;
67160;SDS011;54088;52.238;21.104;2022-08-21T01:09:13;8.93;;;5.50;;
67160;SDS011;54088;52.238;21.104;2022-08-21T01:11:39;9.20;;;5.55;;
67160;SDS011;54088;52.238;21.104;2022-08-21T01:14:07;9.65;;;5.25;;
67160;SDS011;54088;52.238;21.104;2022-08-21T01:16:37;7.07;;;5.00;;
67160;SDS011;54088;52.238;21.104;2022-08-21T01:19:03;6.97;;;4.97;;
67160;SDS011;54088;52.238;21.104;2022-08-21T01:21:29;8.13;;;5.80;;
67160;SDS011;54088;52.238;21.104;2022-08-21T01:23:55;8.02;;;5.15;;
67160;SDS011;54088;52.238;21.104;2022-08-21T01:26:23;8.05;;;5.20;;
67160;SDS011;54088;52.238;21.104;2022-08-21T01:28:57;10.70;;;5.18;;
67160;SDS011;54088;52.238;21.104;2022-08-21T01:31:28;9.38;;;5.13;;
67160;SDS011;54088;52.238;21.104;2022-08-21T01:33:54;7.20;;;4.80;;
67160;SDS011;54088;52.238;21.104;2022-08-21T01:36:21;8.93;;;5.63;;
67160;SDS011;54088;52.238;21.104;2022-08-21T01:38:47;7.95;;;5.10;;
67160;SDS011;54088;52.238;21.104;2022-08-21T01:41:14;7.05;;;5.20;;
67160;SDS011;54088;52.238;21.104;2022-08-21T01:43:40;7.20;;;4.95;;
67160;SDS011;54088;52.238;21.104;2022-08-21T01:46:07;8.63;;;5.25;;
67160;SDS011;54088;52.238;21.104;2022-08-21T01:48:33;9.40;;;5.65;;
67160;SDS011;54088;52.238;21.104;2022-08-21T01:50:59;8.70;;;5.45;;
67160;SDS011;54088;52.238;21.104;2022-08-21T01:53:25;7.18;;;4.80;;
67160;SDS011;54088;52.238;21.104;2022-08-21T01:55:50;8.07;;;5.70;;
67160;SDS011;54088;52.238;21.104;2022-08-21T01:58:16;8.75;;;5.13;;
67160;SDS011;54088;52.238;21.104;2022-08-21T02:00:42;6.95;;;5.10;;
67160;SDS011;54088;52.238;21.104;2022-08-21T02:03:08;7.30;;;5.35;;
67160;SDS011;54088;52.238;21.104;2022-08-21T02:05:34;8.43;;;5.82;;
67160;SDS011;54088;52.238;21.104;2022-08-21T02:08:00;8.95;;;5.05;;
67160;SDS011;54088;52.238;21.104;2022-08-21T02:10:28;8.85;;;6.05;;
67160;SDS011;54088;52.238;21.104;2022-08-21T02:12:55;8.05;;;5.55;;
67160;SDS011;54088;52.238;21.104;2022-08-21T02:15:22;7.82;;;5.22;;
67160;SDS011;54088;52.238;21.104;2022-08-21T02:17:49;10.68;;;6.22;;
67160;SDS011;54088;52.238;21.104;2022-08-21T02:20:23;7.30;;;5.60;;
67160;SDS011;54088;52.238;21.104;2022-08-21T02:22:50;9.32;;;5.25;;
67160;SDS011;54088;52.238;21.104;2022-08-21T02:25:17;9.40;;;6.60;;
67160;SDS011;54088;52.238;21.104;2022-08-21T02:27:44;10.90;;;6.20;;
67160;SDS011;54088;52.238;21.104;2022-08-21T02:30:16;8.60;;;5.35;;
67160;SDS011;54088;52.238;21.104;2022-08-21T02:32:44;9.00;;;5.70;;
67160;SDS011;54088;52.238;21.104;2022-08-21T02:35:10;8.25;;;5.80;;
67160;SDS011;54088;52.238;21.104;2022-08-21T02:37:49;7.90;;;5.82;;
67160;SDS011;54088;52.238;21.104;2022-08-21T02:40:23;7.95;;;6.03;;
67160;SDS011;54088;52.238;21.104;2022-08-21T02:42:50;9.57;;;5.70;;
67160;SDS011;54088;52.238;21.104;2022-08-21T02:45:17;8.18;;;5.82;;
67160;SDS011;54088;52.238;21.104;2022-08-21T02:47:50;8.32;;;5.63;;
67160;SDS011;54088;52.238;21.104;2022-08-21T02:50:20;9.52;;;5.97;;
67160;SDS011;54088;52.238;21.104;2022-08-21T02:52:48;6.80;;;5.70;;
67160;SDS011;54088;52.238;21.104;2022-08-21T02:55:14;7.82;;;5.18;;
67160;SDS011;54088;52.238;21.104;2022-08-21T02:57:41;8.95;;;5.63;;
67160;SDS011;54088;52.238;21.104;2022-08-21T03:00:06;7.40;;;5.72;;
67160;SDS011;54088;52.238;21.104;2022-08-21T03:02:34;8.10;;;5.45;;
67160;SDS011;54088;52.238;21.104;2022-08-21T03:04:59;9.07;;;5.47;;
67160;SDS011;54088;52.238;21.104;2022-08-21T03:07:25;7.95;;;5.47;;
67160;SDS011;54088;52.238;21.104;2022-08-21T03:09:51;9.02;;;5.07;;
67160;SDS011;54088;52.238;21.104;2022-08-21T03:12:17;7.32;;;5.72;;
67160;SDS011;54088;52.238;21.104;2022-08-21T03:14:43;8.50;;;5.18;;
67160;SDS011;54088;52.238;21.104;2022-08-21T03:17:08;9.48;;;5.53;;
67160;SDS011;54088;52.238;21.104;2022-08-21T03:19:34;6.75;;;5.10;;
67160;SDS011;54088;52.238;21.104;2022-08-21T03:22:00;9.30;;;5.68;;
67160;SDS011;54088;52.238;21.104;2022-08-21T03:24:25;8.57;;;5.45;;
67160;SDS011;54088;52.238;21.104;2022-08-21T03:26:51;9.07;;;5.18;;
67160;SDS011;54088;52.238;21.104;2022-08-21T03:29:17;7.57;;;5.65;;
67160;SDS011;54088;52.238;21.104;2022-08-21T03:31:42;7.90;;;5.72;;
67160;SDS011;54088;52.238;21.104;2022-08-21T03:34:08;9.13;;;6.00;;
67160;SDS011;54088;52.238;21.104;2022-08-21T03:36:34;8.40;;;5.75;;
67160;SDS011;54088;52.238;21.104;2022-08-21T03:38:59;8.40;;;5.75;;
67160;SDS011;54088;52.238;21.104;2022-08-21T03:41:25;8.50;;;5.72;;
67160;SDS011;54088;52.238;21.104;2022-08-21T03:43:51;9.32;;;5.55;;
67160;SDS011;54088;52.238;21.104;2022-08-21T03:46:16;7.80;;;5.78;;
67160;SDS011;54088;52.238;21.104;2022-08-21T03:48:42;7.80;;;5.65;;
67160;SDS011;54088;52.238;21.104;2022-08-21T03:51:08;7.68;;;5.75;;
67160;SDS011;54088;52.238;21.104;2022-08-21T03:53:33;7.63;;;5.47;;
67160;SDS011;54088;52.238;21.104;2022-08-21T03:55:59;11.63;;;5.43;;
67160;SDS011;54088;52.238;21.104;2022-08-21T03:58:26;8.65;;;5.68;;
67160;SDS011;54088;52.238;21.104;2022-08-21T04:00:54;6.68;;;5.70;;
67160;SDS011;54088;52.238;21.104;2022-08-21T04:03:22;9.13;;;6.30;;
67160;SDS011;54088;52.238;21.104;2022-08-21T04:05:48;7.53;;;5.88;;
67160;SDS011;54088;52.238;21.104;2022-08-21T04:08:14;9.20;;;5.80;;
67160;SDS011;54088;52.238;21.104;2022-08-21T04:10:43;9.45;;;5.20;;
67160;SDS011;54088;52.238;21.104;2022-08-21T04:13:11;9.73;;;5.82;;
67160;SDS011;54088;52.238;21.104;2022-08-21T04:15:37;8.70;;;5.93;;
67160;SDS011;54088;52.238;21.104;2022-08-21T04:18:04;7.25;;;5.30;;
67160;SDS011;54088;52.238;21.104;2022-08-21T04:20:30;8.70;;;5.43;;
67160;SDS011;54088;52.238;21.104;2022-08-21T04:22:56;6.60;;;5.32;;
67160;SDS011;54088;52.238;21.104;2022-08-21T04:25:22;8.32;;;5.30;;
67160;SDS011;54088;52.238;21.104;2022-08-21T04:27:50;8.30;;;5.55;;
67160;SDS011;54088;52.238;21.104;2022-08-21T04:30:16;7.43;;;5.35;;
67160;SDS011;54088;52.238;21.104;2022-08-21T04:32:43;8.52;;;5.20;;
67160;SDS011;54088;52.238;21.104;2022-08-21T04:35:10;8.15;;;5.50;;
67160;SDS011;54088;52.238;21.104;2022-08-21T04:37:37;8.25;;;5.32;;
67160;SDS011;54088;52.238;21.104;2022-08-21T04:40:04;7.68;;;4.88;;
67160;SDS011;54088;52.238;21.104;2022-08-21T04:42:31;6.70;;;5.20;;
67160;SDS011;54088;52.238;21.104;2022-08-21T04:44:58;6.85;;;5.22;;
67160;SDS011;54088;52.238;21.104;2022-08-21T04:47:23;6.80;;;4.90;;
67160;SDS011;54088;52.238;21.104;2022-08-21T04:49:49;7.00;;;4.60;;
67160;SDS011;54088;52.238;21.104;2022-08-21T04:52:17;6.80;;;4.95;;
67160;SDS011;54088;52.238;21.104;2022-08-21T04:54:44;8.15;;;5.07;;
67160;SDS011;54088;52.238;21.104;2022-08-21T04:57:12;8.13;;;4.93;;
67160;SDS011;54088;52.238;21.104;2022-08-21T04:59:44;12.15;;;4.90;;
67160;SDS011;54088;52.238;21.104;2022-08-21T05:02:13;8.55;;;4.75;;
67160;SDS011;54088;52.238;21.104;2022-08-21T05:04:42;6.95;;;4.78;;
67160;SDS011;54088;52.238;21.104;2022-08-21T05:07:14;7.75;;;4.75;;
67160;SDS011;54088;52.238;21.104;2022-08-21T05:09:43;7.13;;;4.80;;
67160;SDS011;54088;52.238;21.104;2022-08-21T05:12:09;6.80;;;4.70;;
67160;SDS011;54088;52.238;21.104;2022-08-21T05:14:35;8.15;;;4.40;;
67160;SDS011;54088;52.238;21.104;2022-08-21T05:17:01;9.18;;;4.38;;
67160;SDS011;54088;52.238;21.104;2022-08-21T05:19:27;6.35;;;4.32;;
67160;SDS011;54088;52.238;21.104;2022-08-21T05:21:53;7.63;;;4.60;;
67160;SDS011;54088;52.238;21.104;2022-08-21T05:24:19;9.25;;;4.47;;
67160;SDS011;54088;52.238;21.104;2022-08-21T05:26:45;6.53;;;4.68;;
67160;SDS011;54088;52.238;21.104;2022-08-21T05:29:11;6.55;;;4.22;;
67160;SDS011;54088;52.238;21.104;2022-08-21T05:31:39;8.20;;;4.60;;
67160;SDS011;54088;52.238;21.104;2022-08-21T05:34:04;6.95;;;4.28;;
67160;SDS011;54088;52.238;21.104;2022-08-21T05:36:30;8.38;;;4.32;;
67160;SDS011;54088;52.238;21.104;2022-08-21T05:38:56;6.85;;;4.55;;
67160;SDS011;54088;52.238;21.104;2022-08-21T05:41:22;7.07;;;4.35;;
67160;SDS011;54088;52.238;21.104;2022-08-21T05:43:48;7.53;;;4.32;;
67160;SDS011;54088;52.238;21.104;2022-08-21T05:46:14;7.70;;;4.28;;
67160;SDS011;54088;52.238;21.104;2022-08-21T05:48:40;7.43;;;4.35;;
67160;SDS011;54088;52.238;21.104;2022-08-21T05:51:07;5.90;;;4.22;;
67160;SDS011;54088;52.238;21.104;2022-08-21T05:53:35;6.53;;;4.07;;
67160;SDS011;54088;52.238;21.104;2022-08-21T05:56:01;6.70;;;4.60;;
67160;SDS011;54088;52.238;21.104;2022-08-21T05:58:28;6.07;;;4.13;;
67160;SDS011;54088;52.238;21.104;2022-08-21T06:00:56;7.40;;;4.22;;
67160;SDS011;54088;52.238;21.104;2022-08-21T06:03:23;7.05;;;4.10;;
67160;SDS011;54088;52.238;21.104;2022-08-21T06:05:51;8.93;;;4.63;;
67160;SDS011;54088;52.238;21.104;2022-08-21T06:08:18;8.15;;;4.40;;
67160;SDS011;54088;52.238;21.104;2022-08-21T06:10:45;8.30;;;4.10;;
67160;SDS011;54088;52.238;21.104;2022-08-21T06:13:11;7.18;;;4.60;;
67160;SDS011;54088;52.238;21.104;2022-08-21T06:15:38;6.72;;;4.50;;
67160;SDS011;54088;52.238;21.104;2022-08-21T06:18:04;6.88;;;4.40;;
67160;SDS011;54088;52.238;21.104;2022-08-21T06:20:30;6.50;;;4.07;;
67160;SDS011;54088;52.238;21.104;2022-08-21T06:22:56;7.53;;;4.15;;
67160;SDS011;54088;52.238;21.104;2022-08-21T06:25:22;6.93;;;3.70;;
67160;SDS011;54088;52.238;21.104;2022-08-21T06:27:49;6.43;;;4.47;;
67160;SDS011;54088;52.238;21.104;2022-08-21T06:30:14;8.32;;;5.13;;
67160;SDS011;54088;52.238;21.104;2022-08-21T06:32:40;7.00;;;4.15;;
67160;SDS011;54088;52.238;21.104;2022-08-21T06:35:06;6.40;;;4.28;;
67160;SDS011;54088;52.238;21.104;2022-08-21T06:37:32;5.80;;;3.70;;
67160;SDS011;54088;52.238;21.104;2022-08-21T06:39:58;7.75;;;4.65;;
67160;SDS011;54088;52.238;21.104;2022-08-21T06:42:23;8.18;;;4.10;;
67160;SDS011;54088;52.238;21.104;2022-08-21T06:44:49;7.43;;;4.15;;
67160;SDS011;54088;52.238;21.104;2022-08-21T06:47:15;7.40;;;4.10;;
67160;SDS011;54088;52.238;21.104;2022-08-21T06:49:40;6.55;;;4.47;;
67160;SDS011;54088;52.238;21.104;2022-08-21T06:52:09;6.07;;;4.10;;
67160;SDS011;54088;52.238;21.104;2022-08-21T06:54:36;6.93;;;4.60;;
67160;SDS011;54088;52.238;21.104;2022-08-21T06:57:02;9.30;;;4.43;;
67160;SDS011;54088;52.238;21.104;2022-08-21T06:59:28;7.88;;;4.28;;
67160;SDS011;54088;52.238;21.104;2022-08-21T07:01:54;7.75;;;4.07;;
67160;SDS011;54088;52.238;21.104;2022-08-21T07:04:20;5.35;;;3.92;;
67160;SDS011;54088;52.238;21.104;2022-08-21T07:06:46;8.07;;;4.25;;
67160;SDS011;54088;52.238;21.104;2022-08-21T07:09:11;9.52;;;4.40;;
67160;SDS011;54088;52.238;21.104;2022-08-21T07:11:37;8.48;;;4.25;;
67160;SDS011;54088;52.238;21.104;2022-08-21T07:14:03;7.22;;;4.32;;
67160;SDS011;54088;52.238;21.104;2022-08-21T07:16:29;7.50;;;4.47;;
67160;SDS011;54088;52.238;21.104;2022-08-21T07:18:55;7.50;;;4.15;;
67160;SDS011;54088;52.238;21.104;2022-08-21T07:21:21;7.05;;;3.83;;
67160;SDS011;54088;52.238;21.104;2022-08-21T07:23:48;8.18;;;4.38;;
67160;SDS011;54088;52.238;21.104;2022-08-21T07:26:16;7.05;;;4.57;;
67160;SDS011;54088;52.238;21.104;2022-08-21T07:28:45;8.43;;;4.70;;
67160;SDS011;54088;52.238;21.104;2022-08-21T07:31:13;8.05;;;4.47;;
67160;SDS011;54088;52.238;21.104;2022-08-21T07:33:40;7.03;;;4.03;;
67160;SDS011;54088;52.238;21.104;2022-08-21T07:36:07;10.05;;;4.50;;
67160;SDS011;54088;52.238;21.104;2022-08-21T07:38:33;7.53;;;4.20;;
67160;SDS011;54088;52.238;21.104;2022-08-21T07:40:59;9.13;;;4.22;;
67160;SDS011;54088;52.238;21.104;2022-08-21T07:43:26;7.03;;;3.97;;
67160;SDS011;54088;52.238;21.104;2022-08-21T07:45:53;7.22;;;4.43;;
67160;SDS011;54088;52.238;21.104;2022-08-21T07:48:19;7.88;;;4.28;;
67160;SDS011;54088;52.238;21.104;2022-08-21T07:50:46;6.75;;;4.15;;
67160;SDS011;54088;52.238;21.104;2022-08-21T07:53:12;7.50;;;4.28;;
67160;SDS011;54088;52.238;21.104;2022-08-21T07:55:37;6.47;;;4.13;;
67160;SDS011;54088;52.238;21.104;2022-08-21T07:58:03;7.60;;;4.30;;
67160;SDS011;54088;52.238;21.104;2022-08-21T08:00:29;6.57;;;4.55;;
67160;SDS011;54088;52.238;21.104;2022-08-21T08:02:55;7.40;;;4.72;;
67160;SDS011;54088;52.238;21.104;2022-08-21T08:05:22;6.40;;;4.70;;
67160;SDS011;54088;52.238;21.104;2022-08-21T08:07:51;7.35;;;4.72;;
67160;SDS011;54088;52.238;21.104;2022-08-21T08:10:17;7.90;;;5.13;;
67160;SDS011;54088;52.238;21.104;2022-08-21T08:12:43;8.15;;;4.60;;
67160;SDS011;54088;52.238;21.104;2022-08-21T08:15:11;8.15;;;4.43;;
67160;SDS011;54088;52.238;21.104;2022-08-21T08:17:42;6.95;;;4.38;;
67160;SDS011;54088;52.238;21.104;2022-08-21T08:20:08;10.70;;;4.60;;
67160;SDS011;54088;52.238;21.104;2022-08-21T08:22:36;7.57;;;4.90;;
67160;SDS011;54088;52.238;21.104;2022-08-21T08:25:04;6.78;;;4.20;;
67160;SDS011;54088;52.238;21.104;2022-08-21T08:27:31;6.70;;;4.30;;
67160;SDS011;54088;52.238;21.104;2022-08-21T08:29:56;7.50;;;4.40;;
67160;SDS011;54088;52.238;21.104;2022-08-21T08:32:22;6.75;;;4.60;;
67160;SDS011;54088;52.238;21.104;2022-08-21T08:34:48;6.50;;;4.32;;
67160;SDS011;54088;52.238;21.104;2022-08-21T08:37:16;5.78;;;4.10;;
67160;SDS011;54088;52.238;21.104;2022-08-21T08:39:43;6.30;;;3.85;;
67160;SDS011;54088;52.238;21.104;2022-08-21T08:42:11;7.68;;;4.00;;
67160;SDS011;54088;52.238;21.104;2022-08-21T08:44:45;8.02;;;4.18;;
67160;SDS011;54088;52.238;21.104;2022-08-21T08:47:16;6.05;;;4.30;;
67160;SDS011;54088;52.238;21.104;2022-08-21T08:49:48;5.97;;;4.05;;
67160;SDS011;54088;52.238;21.104;2022-08-21T08:54:50;7.10;;;3.92;;
67160;SDS011;54088;52.238;21.104;2022-08-21T08:57:23;8.27;;;4.07;;
67160;SDS011;54088;52.238;21.104;2022-08-21T08:59:52;6.45;;;3.95;;
67160;SDS011;54088;52.238;21.104;2022-08-21T09:02:22;8.45;;;4.00;;
67160;SDS011;54088;52.238;21.104;2022-08-21T09:04:48;8.15;;;4.32;;
67160;SDS011;54088;52.238;21.104;2022-08-21T09:10:13;7.78;;;3.50;;
67160;SDS011;54088;52.238;21.104;2022-08-21T09:21:19;6.78;;;3.30;;
67160;SDS011;54088;52.238;21.104;2022-08-21T09:23:55;6.07;;;3.70;;
67160;SDS011;54088;52.238;21.104;2022-08-21T09:26:31;8.63;;;4.05;;
67160;SDS011;54088;52.238;21.104;2022-08-21T09:29:12;7.20;;;3.88;;
67160;SDS011;54088;52.238;21.104;2022-08-21T09:31:38;6.55;;;4.22;;
67160;SDS011;54088;52.238;21.104;2022-08-21T09:34:08;7.82;;;4.10;;
67160;SDS011;54088;52.238;21.104;2022-08-21T09:36:43;7.80;;;3.88;;
67160;SDS011;54088;52.238;21.104;2022-08-21T09:39:13;6.72;;;3.92;;
67160;SDS011;54088;52.238;21.104;2022-08-21T09:41:57;5.72;;;3.78;;
67160;SDS011;54088;52.238;21.104;2022-08-21T09:44:30;5.28;;;3.50;;
67160;SDS011;54088;52.238;21.104;2022-08-21T09:46:57;5.72;;;3.67;;
67160;SDS011;54088;52.238;21.104;2022-08-21T09:49:26;6.50;;;4.53;;
67160;SDS011;54088;52.238;21.104;2022-08-21T09:51:54;6.13;;;3.63;;
67160;SDS011;54088;52.238;21.104;2022-08-21T09:54:23;6.57;;;4.05;;
67160;SDS011;54088;52.238;21.104;2022-08-21T09:57:00;5.43;;;3.70;;
67160;SDS011;54088;52.238;21.104;2022-08-21T09:59:55;7.43;;;4.07;;
67160;SDS011;54088;52.238;21.104;2022-08-21T10:02:54;5.55;;;3.35;;
67160;SDS011;54088;52.238;21.104;2022-08-21T10:05:32;6.10;;;3.40;;
67160;SDS011;54088;52.238;21.104;2022-08-21T10:07:57;6.55;;;3.47;;
67160;SDS011;54088;52.238;21.104;2022-08-21T10:10:28;6.03;;;3.58;;
67160;SDS011;54088;52.238;21.104;2022-08-21T10:13:01;5.47;;;3.33;;
67160;SDS011;54088;52.238;21.104;2022-08-21T10:18:22;7.65;;;3.60;;
67160;SDS011;54088;52.238;21.104;2022-08-21T10:23:37;6.30;;;3.30;;
67160;SDS011;54088;52.238;21.104;2022-08-21T10:31:18;5.78;;;3.03;;
67160;SDS011;54088;52.238;21.104;2022-08-21T10:34:04;6.47;;;3.58;;
67160;SDS011;54088;52.238;21.104;2022-08-21T10:36:39;5.57;;;3.15;;
67160;SDS011;54088;52.238;21.104;2022-08-21T10:44:30;8.15;;;3.78;;
67160;SDS011;54088;52.238;21.104;2022-08-21T10:47:24;7.95;;;3.60;;
67160;SDS011;54088;52.238;21.104;2022-08-21T10:52:30;6.32;;;3.20;;
67160;SDS011;54088;52.238;21.104;2022-08-21T10:55:06;5.03;;;3.15;;
67160;SDS011;54088;52.238;21.104;2022-08-21T10:57:39;6.75;;;3.70;;
67160;SDS011;54088;52.238;21.104;2022-08-21T11:00:12;6.63;;;3.50;;
67160;SDS011;54088;52.238;21.104;2022-08-21T11:08:11;6.03;;;3.05;;
67160;SDS011;54088;52.238;21.104;2022-08-21T11:10:47;6.97;;;3.30;;
67160;SDS011;54088;52.238;21.104;2022-08-21T11:16:16;6.80;;;3.65;;
67160;SDS011;54088;52.238;21.104;2022-08-21T11:18:49;5.88;;;3.58;;
67160;SDS011;54088;52.238;21.104;2022-08-21T11:21:34;8.30;;;3.50;;
67160;SDS011;54088;52.238;21.104;2022-08-21T11:24:22;7.50;;;3.70;;
67160;SDS011;54088;52.238;21.104;2022-08-21T11:29:56;5.35;;;3.20;;
67160;SDS011;54088;52.238;21.104;2022-08-21T11:40:19;5.38;;;3.08;;
67160;SDS011;54088;52.238;21.104;2022-08-21T11:43:06;5.88;;;3.20;;
67160;SDS011;54088;52.238;21.104;2022-08-21T11:45:45;6.97;;;3.30;;
67160;SDS011;54088;52.238;21.104;2022-08-21T11:51:19;5.25;;;3.10;;
67160;SDS011;54088;52.238;21.104;2022-08-21T11:53:52;6.43;;;2.90;;
67160;SDS011;54088;52.238;21.104;2022-08-21T11:56:32;5.90;;;2.80;;
67160;SDS011;54088;52.238;21.104;2022-08-21T11:59:07;5.47;;;3.30;;
67160;SDS011;54088;52.238;21.104;2022-08-21T12:01:42;5.88;;;3.50;;
67160;SDS011;54088;52.238;21.104;2022-08-21T12:04:16;6.20;;;3.05;;
67160;SDS011;54088;52.238;21.104;2022-08-21T12:07:13;8.88;;;3.38;;
67160;SDS011;54088;52.238;21.104;2022-08-21T12:09:54;6.78;;;2.83;;
67160;SDS011;54088;52.238;21.104;2022-08-21T12:12:23;7.35;;;3.33;;
67160;SDS011;54088;52.238;21.104;2022-08-21T12:15:16;6.28;;;3.45;;
67160;SDS011;54088;52.238;21.104;2022-08-21T12:17:38;7.75;;;3.50;;
67160;SDS011;54088;52.238;21.104;2022-08-21T12:20:16;5.95;;;2.88;;
67160;SDS011;54088;52.238;21.104;2022-08-21T12:23:34;5.93;;;3.55;;
67160;SDS011;54088;52.238;21.104;2022-08-21T12:25:37;5.53;;;3.35;;
67160;SDS011;54088;52.238;21.104;2022-08-21T12:28:15;5.47;;;3.58;;
67160;SDS011;54088;52.238;21.104;2022-08-21T12:30:47;4.90;;;3.00;;
67160;SDS011;54088;52.238;21.104;2022-08-21T12:35:43;6.97;;;3.30;;
67160;SDS011;54088;52.238;21.104;2022-08-21T12:38:12;5.07;;;3.00;;
67160;SDS011;54088;52.238;21.104;2022-08-21T12:40:46;5.63;;;3.63;;
67160;SDS011;54088;52.238;21.104;2022-08-21T12:43:19;6.18;;;3.30;;
67160;SDS011;54088;52.238;21.104;2022-08-21T12:45:47;5.78;;;3.22;;
67160;SDS011;54088;52.238;21.104;2022-08-21T12:48:18;5.97;;;3.17;;
67160;SDS011;54088;52.238;21.104;2022-08-21T12:50:57;4.97;;;2.80;;
67160;SDS011;54088;52.238;21.104;2022-08-21T12:58:40;5.70;;;2.97;;
67160;SDS011;54088;52.238;21.104;2022-08-21T13:01:17;5.35;;;3.50;;
67160;SDS011;54088;52.238;21.104;2022-08-21T13:03:44;5.38;;;3.28;;
67160;SDS011;54088;52.238;21.104;2022-08-21T13:06:15;4.90;;;3.30;;
67160;SDS011;54088;52.238;21.104;2022-08-21T13:08:42;5.32;;;3.33;;
67160;SDS011;54088;52.238;21.104;2022-08-21T13:11:09;5.13;;;2.97;;
67160;SDS011;54088;52.238;21.104;2022-08-21T13:13:39;5.72;;;3.22;;
67160;SDS011;54088;52.238;21.104;2022-08-21T13:16:06;4.70;;;3.15;;
67160;SDS011;54088;52.238;21.104;2022-08-21T13:18:34;5.07;;;3.15;;
67160;SDS011;54088;52.238;21.104;2022-08-21T13:21:18;5.45;;;3.58;;
67160;SDS011;54088;52.238;21.104;2022-08-21T13:23:44;6.45;;;3.25;;
67160;SDS011;54088;52.238;21.104;2022-08-21T13:26:27;4.82;;;2.83;;
67160;SDS011;54088;52.238;21.104;2022-08-21T13:28:53;6.82;;;3.38;;
67160;SDS011;54088;52.238;21.104;2022-08-21T13:31:31;5.28;;;3.10;;
67160;SDS011;54088;52.238;21.104;2022-08-21T13:33:58;7.70;;;3.42;;
67160;SDS011;54088;52.238;21.104;2022-08-21T13:36:25;5.90;;;3.10;;
67160;SDS011;54088;52.238;21.104;2022-08-21T13:38:54;5.68;;;3.40;;
67160;SDS011;54088;52.238;21.104;2022-08-21T13:41:21;7.07;;;3.05;;
67160;SDS011;54088;52.238;21.104;2022-08-21T13:43:56;6.03;;;3.10;;
67160;SDS011;54088;52.238;21.104;2022-08-21T13:46:53;4.38;;;3.05;;
67160;SDS011;54088;52.238;21.104;2022-08-21T13:49:20;5.20;;;3.13;;
67160;SDS011;54088;52.238;21.104;2022-08-21T13:51:51;5.32;;;3.38;;
67160;SDS011;54088;52.238;21.104;2022-08-21T13:54:22;6.35;;;3.30;;
67160;SDS011;54088;52.238;21.104;2022-08-21T13:56:48;5.63;;;3.08;;
67160;SDS011;54088;52.238;21.104;2022-08-21T13:59:23;6.70;;;3.15;;
67160;SDS011;54088;52.238;21.104;2022-08-21T14:04:48;5.82;;;3.05;;
67160;SDS011;54088;52.238;21.104;2022-08-21T14:07:17;5.40;;;2.90;;
67160;SDS011;54088;52.238;21.104;2022-08-21T14:10:08;4.55;;;2.92;;
67160;SDS011;54088;52.238;21.104;2022-08-21T14:15:16;5.55;;;3.40;;
67160;SDS011;54088;52.238;21.104;2022-08-21T14:17:44;6.57;;;3.10;;
67160;SDS011;54088;52.238;21.104;2022-08-21T14:20:11;4.78;;;3.30;;
67160;SDS011;54088;52.238;21.104;2022-08-21T14:22:51;5.88;;;3.08;;
67160;SDS011;54088;52.238;21.104;2022-08-21T14:27:44;6.45;;;3.25;;
67160;SDS011;54088;52.238;21.104;2022-08-21T14:32:46;4.97;;;3.03;;
67160;SDS011;54088;52.238;21.104;2022-08-21T14:35:12;5.53;;;2.85;;
67160;SDS011;54088;52.238;21.104;2022-08-21T14:37:42;5.65;;;3.30;;
67160;SDS011;54088;52.238;21.104;2022-08-21T14:40:09;4.57;;;2.83;;
67160;SDS011;54088;52.238;21.104;2022-08-21T14:42:36;5.53;;;3.00;;
67160;SDS011;54088;52.238;21.104;2022-08-21T14:45:05;8.00;;;3.22;;
67160;SDS011;54088;52.238;21.104;2022-08-21T14:47:38;5.10;;;3.00;;
67160;SDS011;54088;52.238;21.104;2022-08-21T14:50:04;5.30;;;2.90;;
67160;SDS011;54088;52.238;21.104;2022-08-21T14:52:30;6.20;;;2.95;;
67160;SDS011;54088;52.238;21.104;2022-08-21T14:54:55;5.35;;;3.30;;
67160;SDS011;54088;52.238;21.104;2022-08-21T14:57:21;5.15;;;2.88;;
67160;SDS011;54088;52.238;21.104;2022-08-21T14:59:48;6.75;;;3.25;;
67160;SDS011;54088;52.238;21.104;2022-08-21T15:02:14;4.53;;;2.70;;
67160;SDS011;54088;52.238;21.104;2022-08-21T15:04:40;6.10;;;3.10;;
67160;SDS011;54088;52.238;21.104;2022-08-21T15:07:06;5.28;;;2.88;;
67160;SDS011;54088;52.238;21.104;2022-08-21T15:09:32;7.05;;;3.20;;
67160;SDS011;54088;52.238;21.104;2022-08-21T15:11:58;5.10;;;2.90;;
67160;SDS011;54088;52.238;21.104;2022-08-21T15:14:27;6.25;;;2.60;;
67160;SDS011;54088;52.238;21.104;2022-08-21T15:16:55;4.22;;;2.60;;
67160;SDS011;54088;52.238;21.104;2022-08-21T15:19:21;5.43;;;2.60;;
67160;SDS011;54088;52.238;21.104;2022-08-21T15:21:47;4.90;;;2.90;;
67160;SDS011;54088;52.238;21.104;2022-08-21T15:24:13;6.07;;;2.75;;
67160;SDS011;54088;52.238;21.104;2022-08-21T15:26:39;6.07;;;2.85;;
67160;SDS011;54088;52.238;21.104;2022-08-21T15:29:06;5.53;;;3.15;;
67160;SDS011;54088;52.238;21.104;2022-08-21T15:31:33;6.25;;;2.90;;
67160;SDS011;54088;52.238;21.104;2022-08-21T15:34:00;6.90;;;3.22;;
67160;SDS011;54088;52.238;21.104;2022-08-21T15:36:25;6.68;;;3.42;;
67160;SDS011;54088;52.238;21.104;2022-08-21T15:38:51;7.07;;;3.63;;
67160;SDS011;54088;52.238;21.104;2022-08-21T15:41:17;6.10;;;3.38;;
67160;SDS011;54088;52.238;21.104;2022-08-21T15:43:48;6.95;;;3.40;;
67160;SDS011;54088;52.238;21.104;2022-08-21T15:46:15;5.88;;;3.70;;
67160;SDS011;54088;52.238;21.104;2022-08-21T15:48:43;5.47;;;3.65;;
67160;SDS011;54088;52.238;21.104;2022-08-21T15:51:11;5.60;;;3.83;;
67160;SDS011;54088;52.238;21.104;2022-08-21T15:53:37;7.43;;;4.05;;
67160;SDS011;54088;52.238;21.104;2022-08-21T15:56:05;6.93;;;4.00;;